Time;durP1;ratioP1;P1;durP2;ratioP2;P2;SDS_P1;SDS_P2;PMS_P1;PMS_P2;Temp;Humidity;BMP_temperature;BMP_pressure;BME280_temperature;BME280_humidity;BME280_pressure;Samples;Min_cycle;Max_cycle;Signal;HPM_P1;HPM_P2
2022/12/24 00:00:00;;;;;;;1.30;0.73;;;;;;;8.86;100.00;100722.19;5057949;27;97241;-32
2022/12/24 00:02:26;;;;;;;2.47;1.17;;;;;;;8.86;100.00;100727.59;5058136;27;96626;-32
2022/12/24 00:04:51;;;;;;;6.25;0.70;;;;;;;8.81;100.00;100733.25;5057144;27;96883;-32
2022/12/24 00:07:16;;;;;;;6.15;1.10;;;;;;;8.79;100.00;100732.44;5057472;27;108773;-32
2022/12/24 00:09:42;;;;;;;16.48;1.50;;;;;;;8.79;100.00;100740.56;5057728;27;97322;-32
2022/12/24 00:12:07;;;;;;;4.22;0.57;;;;;;;8.78;100.00;100752.31;5057792;27;96515;-32
2022/12/24 00:14:32;;;;;;;10.25;1.55;;;;;;;8.75;100.00;100743.50;5058298;27;96836;-32
2022/12/24 00:16:58;;;;;;;7.78;1.33;;;;;;;8.75;100.00;100740.81;5057494;27;100985;-34
2022/12/24 00:19:23;;;;;;;3.90;1.30;;;;;;;8.71;100.00;100742.81;5057788;27;97765;-32
2022/12/24 00:21:48;;;;;;;8.57;1.45;;;;;;;8.68;100.00;100751.97;5057233;27;96723;-32
2022/12/24 00:24:14;;;;;;;10.95;1.08;;;;;;;8.70;100.00;100752.75;5057801;27;96744;-32
2022/12/24 00:26:39;;;;;;;5.18;1.50;;;;;;;8.72;100.00;100755.34;5057212;27;99522;-32
2022/12/24 00:29:04;;;;;;;6.90;0.73;;;;;;;8.71;100.00;100762.59;5057732;27;104211;-32
2022/12/24 00:31:30;;;;;;;12.43;1.40;;;;;;;8.67;100.00;100749.34;5057650;27;96691;-32
2022/12/24 00:33:56;;;;;;;13.73;1.05;;;;;;;8.66;100.00;100753.00;5057959;27;96824;-32
2022/12/24 00:36:22;;;;;;;5.15;1.17;;;;;;;8.64;100.00;100753.09;5056408;27;114523;-33
2022/12/24 00:38:47;;;;;;;11.73;1.80;;;;;;;8.63;100.00;100769.38;5055750;27;101339;-32
2022/12/24 00:41:27;;;;;;;2.42;0.80;;;;;;;8.59;100.00;100757.88;5057317;27;97248;-32
2022/12/24 00:43:54;;;;;;;8.98;1.55;;;;;;;8.62;100.00;100778.44;5057714;27;96703;-33
2022/12/24 00:46:20;;;;;;;8.27;1.27;;;;;;;8.62;100.00;100778.44;5055732;27;101453;-32
2022/12/24 00:48:45;;;;;;;18.75;1.73;;;;;;;8.62;100.00;100784.69;5057019;27;99310;-32
2022/12/24 00:51:10;;;;;;;15.40;1.65;;;;;;;8.61;100.00;100779.41;5057284;27;96826;-32
2022/12/24 00:53:36;;;;;;;12.93;1.75;;;;;;;8.64;100.00;100787.31;5057801;27;96873;-32
2022/12/24 00:56:01;;;;;;;7.60;1.85;;;;;;;8.62;100.00;100794.63;5057084;27;97935;-33
2022/12/24 00:58:26;;;;;;;13.52;1.15;;;;;;;8.59;100.00;100790.28;5057449;27;97928;-31
2022/12/24 01:00:52;;;;;;;7.15;1.17;;;;;;;8.57;100.00;100792.19;5057290;27;96620;-32
2022/12/24 01:03:17;;;;;;;9.95;1.27;;;;;;;8.58;100.00;100791.25;5057731;27;96879;-32
2022/12/24 01:05:42;;;;;;;7.88;1.42;;;;;;;8.58;100.00;100798.44;5057038;27;97484;-32
2022/12/24 01:08:08;;;;;;;11.43;1.73;;;;;;;8.57;100.00;100802.97;5056973;27;97854;-32
2022/12/24 01:10:33;;;;;;;6.32;2.15;;;;;;;8.52;100.00;100805.06;5057846;27;96502;-32
2022/12/24 01:13:02;;;;;;;4.65;0.82;;;;;;;8.52;100.00;100807.75;5057168;27;96812;-32
2022/12/24 01:15:28;;;;;;;11.65;0.75;;;;;;;8.49;100.00;100818.72;5056774;27;97535;-32
2022/12/24 01:17:53;;;;;;;7.35;1.10;;;;;;;8.45;100.00;100812.59;5057220;27;97828;-32
2022/12/24 01:20:19;;;;;;;2.30;1.17;;;;;;;8.45;100.00;100812.59;5057493;27;96576;-33
2022/12/24 01:22:44;;;;;;;3.88;1.30;;;;;;;8.44;100.00;100821.66;5055177;27;96836;-32
2022/12/24 01:25:10;;;;;;;14.45;1.73;;;;;;;8.45;100.00;100827.94;5056304;27;97440;-32
2022/12/24 01:27:36;;;;;;;8.07;1.02;;;;;;;8.44;100.00;100835.16;5055243;27;100914;-32
2022/12/24 01:30:03;;;;;;;7.20;1.08;;;;;;;8.43;100.00;100830.69;5057246;27;96851;-31
2022/12/24 01:32:28;;;;;;;3.78;0.98;;;;;;;8.42;100.00;100825.41;5055732;27;96893;-32
2022/12/24 01:34:54;;;;;;;10.38;1.17;;;;;;;8.42;100.00;100837.06;5056350;27;107504;-33
2022/12/24 01:37:19;;;;;;;5.20;0.85;;;;;;;8.43;100.00;100843.34;5056002;27;105112;-33
2022/12/24 01:39:44;;;;;;;7.03;1.13;;;;;;;8.41;100.00;100859.59;5057350;27;96723;-32
2022/12/24 01:45:30;;;;;;;5.85;0.63;;;;;;;8.38;100.00;100858.88;5024078;27;97782;-32
2022/12/24 01:47:55;;;;;;;7.93;1.20;;;;;;;8.32;100.00;100862.78;5059407;27;97806;-32
2022/12/24 01:50:21;;;;;;;2.05;0.47;;;;;;;8.30;100.00;100860.13;5060015;27;96641;-34
2022/12/24 01:52:46;;;;;;;5.43;0.93;;;;;;;8.31;100.00;100863.69;5060737;27;96692;-32
2022/12/24 01:55:16;;;;;;;3.92;0.77;;;;;;;8.32;100.00;100873.56;5059685;27;103950;-32
2022/12/24 01:57:50;;;;;;;13.45;0.73;;;;;;;8.32;100.00;100875.38;5059576;27;99463;-32
2022/12/24 02:00:16;;;;;;;3.97;0.98;;;;;;;8.31;100.00;100874.50;5058734;27;96659;-32
2022/12/24 02:02:45;;;;;;;4.95;0.80;;;;;;;8.31;100.00;100888.00;5060340;27;96764;-32
2022/12/24 02:05:39;;;;;;;7.07;0.95;;;;;;;8.34;100.00;100886.97;5058190;27;100893;-33
2022/12/24 02:08:07;;;;;;;4.47;1.00;;;;;;;8.28;100.00;100883.63;5041535;27;97868;-33
2022/12/24 02:10:32;;;;;;;9.18;1.63;;;;;;;8.30;100.00;100891.66;5058545;27;96695;-32
2022/12/24 02:12:59;;;;;;;2.78;0.88;;;;;;;8.33;100.00;100896.03;5059834;27;96790;-33
2022/12/24 02:15:26;;;;;;;8.80;0.80;;;;;;;8.32;100.00;100894.25;5057680;27;101053;-33
2022/12/24 02:18:09;;;;;;;3.83;0.55;;;;;;;8.32;100.00;100895.16;5057952;27;101162;-32
2022/12/24 02:21:01;;;;;;;21.08;1.15;;;;;;;8.35;100.00;100895.00;5058452;27;96591;-33
2022/12/24 02:24:23;;;;;;;6.72;0.28;;;;;;;8.38;100.00;100902.91;5057806;27;96949;-32
2022/12/24 02:27:06;;;;;;;6.25;0.73;;;;;;;8.36;100.00;100894.03;4976810;28;98027;-32
2022/12/24 02:30:02;;;;;;;7.35;1.13;;;;;;;8.40;100.00;100903.75;4976754;28;97846;-32
2022/12/24 02:32:52;;;;;;;5.60;1.10;;;;;;;8.43;100.00;100889.22;5043367;27;96806;-32
2022/12/24 02:35:24;;;;;;;5.20;0.75;;;;;;;8.44;100.00;100889.16;5058742;27;96603;-32
2022/12/24 02:38:21;;;;;;;8.45;1.20;;;;;;;8.49;100.00;100895.19;5058924;27;98151;-32
2022/12/24 02:41:01;;;;;;;14.32;1.35;;;;;;;8.50;100.00;100898.75;5029417;27;97491;-32
2022/12/24 02:43:34;;;;;;;11.98;1.75;;;;;;;8.54;100.00;100894.06;5057805;27;96401;-31
2022/12/24 02:46:05;;;;;;;6.90;1.35;;;;;;;8.58;100.00;100911.84;5057999;27;96708;-32
2022/12/24 02:48:31;;;;;;;5.85;0.60;;;;;;;8.55;100.00;100902.06;5057533;27;100058;-32
2022/12/24 02:51:05;;;;;;;8.13;1.15;;;;;;;8.57;100.00;100904.69;5057555;27;101188;-32
2022/12/24 02:53:32;;;;;;;6.35;1.17;;;;;;;8.61;100.00;100907.16;5059524;27;96620;-32
2022/12/24 02:56:33;;;;;;;10.18;1.10;;;;;;;8.62;100.00;100918.81;5057924;27;96920;-32
2022/12/24 02:59:20;;;;;;;9.37;0.77;;;;;;;8.62;100.00;100910.72;5057356;27;101046;-32
2022/12/24 03:02:04;;;;;;;4.80;1.00;;;;;;;8.64;100.00;100919.63;5059106;27;99402;-32
2022/12/24 03:04:38;;;;;;;3.33;1.20;;;;;;;8.64;100.00;100916.94;5059328;27;96483;-32
2022/12/24 03:07:25;;;;;;;2.05;0.47;;;;;;;8.62;100.00;100919.69;5059061;27;97734;-32
2022/12/24 03:09:55;;;;;;;6.43;0.77;;;;;;;8.64;100.00;100914.22;5058276;27;97935;-31
2022/12/24 03:12:55;;;;;;;7.70;0.82;;;;;;;8.68;100.00;100929.31;5057349;27;100881;-32
2022/12/24 03:15:24;;;;;;;8.30;0.90;;;;;;;8.68;100.00;100930.19;5051746;27;96826;-32
2022/12/24 03:17:52;;;;;;;4.68;1.25;;;;;;;8.69;100.00;100936.44;5057646;27;96850;-32
2022/12/24 03:20:24;;;;;;;4.43;0.77;;;;;;;8.69;100.00;100925.66;5058619;27;97243;-32
2022/12/24 03:22:49;;;;;;;4.65;0.93;;;;;;;8.71;100.00;100929.16;5056195;27;104009;-32
2022/12/24 03:25:15;;;;;;;9.05;1.73;;;;;;;8.74;100.00;100936.22;5059036;27;96462;-34
2022/12/24 03:27:42;;;;;;;9.45;1.38;;;;;;;8.77;100.00;100934.25;5059145;27;96780;-32
2022/12/24 03:30:12;;;;;;;6.03;1.10;;;;;;;8.77;100.00;100944.16;5056642;27;100977;-32
2022/12/24 03:32:37;;;;;;;7.32;1.27;;;;;;;8.78;100.00;100935.09;5056793;27;102088;-32
2022/12/24 03:35:04;;;;;;;8.35;1.23;;;;;;;8.77;100.00;100939.66;5058282;27;96567;-32
2022/12/24 03:37:29;;;;;;;3.20;0.93;;;;;;;8.80;100.00;100939.47;5057146;27;96973;-32
2022/12/24 03:39:54;;;;;;;7.55;1.38;;;;;;;8.81;100.00;100935.81;5058382;27;97844;-32
2022/12/24 03:42:20;;;;;;;5.85;0.93;;;;;;;8.79;100.00;100936.84;5057795;27;99176;-32
2022/12/24 03:44:45;;;;;;;10.98;1.20;;;;;;;8.78;100.00;100938.69;5058548;27;97200;-32
2022/12/24 03:47:10;;;;;;;7.35;0.88;;;;;;;8.79;100.00;100943.09;5058374;27;96870;-32
2022/12/24 03:49:36;;;;;;;3.75;0.88;;;;;;;8.80;100.00;100939.47;5057625;27;105940;-32
2022/12/24 03:52:01;;;;;;;4.88;0.70;;;;;;;8.80;100.00;100944.88;5058694;27;100235;-32
2022/12/24 03:54:26;;;;;;;9.85;1.13;;;;;;;8.83;100.00;100943.84;5057452;27;96607;-32
2022/12/24 03:56:51;;;;;;;2.28;0.68;;;;;;;8.84;100.00;100948.28;5057929;27;96929;-31
2022/12/24 03:59:17;;;;;;;3.55;0.98;;;;;;;8.85;100.00;100948.19;5057373;27;98005;-32
2022/12/24 04:01:42;;;;;;;5.57;0.60;;;;;;;8.85;100.00;100950.91;5057543;27;106828;-32
2022/12/24 04:04:07;;;;;;;4.82;0.98;;;;;;;8.84;100.00;100949.16;5058083;27;96640;-32
2022/12/24 04:06:33;;;;;;;1.88;0.70;;;;;;;8.83;100.00;100935.72;5058136;27;96583;-32
2022/12/24 04:09:00;;;;;;;2.75;0.85;;;;;;;8.83;100.00;100947.41;5057165;27;96794;-32
2022/12/24 04:11:26;;;;;;;8.20;1.02;;;;;;;8.84;100.00;100959.97;5057493;27;97924;-32
2022/12/24 04:13:51;;;;;;;8.32;1.02;;;;;;;8.80;100.00;100958.38;5058079;27;96490;-32
2022/12/24 04:16:17;;;;;;;4.55;0.95;;;;;;;8.83;100.00;100960.03;5058362;27;96811;-32
2022/12/24 04:18:43;;;;;;;13.02;0.77;;;;;;;8.83;100.00;100951.94;5056348;27;99295;-33
2022/12/24 04:21:09;;;;;;;10.70;1.40;;;;;;;8.83;100.00;100968.16;5055932;27;100758;-33
2022/12/24 04:23:36;;;;;;;8.30;1.55;;;;;;;8.84;100.00;100964.47;5055698;27;96832;-32
2022/12/24 04:26:03;;;;;;;8.30;1.45;;;;;;;8.83;100.00;100966.31;5056226;27;96815;-32
2022/12/24 04:28:29;;;;;;;11.73;1.23;;;;;;;8.83;100.00;100966.31;5055945;27;100981;-32
2022/12/24 04:30:59;;;;;;;5.35;0.93;;;;;;;8.85;100.00;100968.94;5055662;27;100788;-32
2022/12/24 04:33:25;;;;;;;9.00;1.75;;;;;;;8.84;100.00;100972.56;5058062;27;96542;-32
2022/12/24 04:35:50;;;;;;;2.53;0.77;;;;;;;8.83;100.00;100974.41;5056396;27;96835;-32
2022/12/24 04:38:15;;;;;;;11.65;1.52;;;;;;;8.82;100.00;100978.09;5057128;27;99272;-32
2022/12/24 04:40:41;;;;;;;6.55;1.30;;;;;;;8.85;100.00;100990.56;5057673;27;97896;-32
2022/12/24 04:43:06;;;;;;;11.25;1.67;;;;;;;8.85;100.00;100985.16;5057983;27;96552;-32
2022/12/24 04:45:31;;;;;;;6.15;1.05;;;;;;;8.87;100.00;100984.13;5057523;27;96779;-31
2022/12/24 04:47:57;;;;;;;5.82;1.30;;;;;;;8.87;100.00;100989.50;5056553;27;98989;-32
2022/12/24 04:50:22;;;;;;;4.88;1.42;;;;;;;8.88;100.00;100988.53;5057304;27;97626;-32
2022/12/24 04:52:47;;;;;;;8.40;1.17;;;;;;;8.89;100.00;100993.00;5057782;27;96576;-32
2022/12/24 04:55:13;;;;;;;5.40;1.05;;;;;;;8.90;100.00;100996.59;5057328;27;96858;-32
2022/12/24 04:57:38;;;;;;;12.40;1.48;;;;;;;8.92;100.00;100986.56;5056946;27;101001;-33
2022/12/24 05:00:05;;;;;;;9.98;1.00;;;;;;;8.95;100.00;100993.66;5057156;27;97340;-32
2022/12/24 05:02:31;;;;;;;6.15;1.17;;;;;;;8.98;100.00;100996.19;5056961;27;96587;-32
2022/12/24 05:04:56;;;;;;;8.75;1.50;;;;;;;8.99;100.00;100993.41;5057772;27;96794;-32
2022/12/24 05:07:21;;;;;;;14.75;1.45;;;;;;;8.98;100.00;100997.03;5057006;27;98041;-32
2022/12/24 05:09:47;;;;;;;5.50;1.13;;;;;;;9.00;100.00;101003.25;5056424;27;99132;-32
2022/12/24 05:12:12;;;;;;;8.18;1.33;;;;;;;9.03;100.00;101007.59;5057266;27;96795;-32
2022/12/24 05:14:38;;;;;;;15.02;1.70;;;;;;;9.01;100.00;101002.31;5057464;27;96892;-32
2022/12/24 05:17:04;;;;;;;7.30;1.27;;;;;;;9.03;100.00;101005.78;5056821;27;97524;-32
2022/12/24 05:19:29;;;;;;;10.70;1.55;;;;;;;9.02;100.00;100995.06;5056716;27;99137;-32
2022/12/24 05:27:22;;;;;;;2.40;0.93;;;;;;;9.04;100.00;101002.13;5060502;27;97110;-32
2022/12/24 05:29:47;;;;;;;5.57;1.15;;;;;;;9.03;100.00;100994.09;5060770;27;97258;-32
2022/12/24 05:32:13;;;;;;;8.32;1.50;;;;;;;9.04;100.00;100990.47;5060719;27;96837;-34
2022/12/24 05:34:38;;;;;;;11.13;1.30;;;;;;;9.06;100.00;100996.66;5060360;27;96780;-32
2022/12/24 05:37:03;;;;;;;9.00;1.17;;;;;;;9.05;100.00;100998.47;5059666;27;98367;-32
2022/12/24 05:39:28;;;;;;;14.20;2.35;;;;;;;9.06;100.00;100999.38;5059813;27;110481;-32
2022/12/24 05:41:54;;;;;;;11.63;1.35;;;;;;;9.08;100.00;101011.84;5060646;27;96424;-32
2022/12/24 05:44:19;;;;;;;13.40;2.25;;;;;;;9.06;100.00;101020.97;5060567;27;96864;-32
2022/12/24 05:46:45;;;;;;;13.30;1.63;;;;;;;9.05;100.00;101020.09;5059885;27;97850;-32
2022/12/24 05:49:10;;;;;;;15.77;1.80;;;;;;;9.03;100.00;101021.97;5059841;27;99081;-32
2022/12/24 05:51:35;;;;;;;15.68;1.17;;;;;;;9.06;100.00;101023.69;5060119;27;96521;-32
2022/12/24 05:54:01;;;;;;;6.13;1.33;;;;;;;9.07;100.00;101031.69;5060450;27;96546;-33
2022/12/24 05:56:26;;;;;;;8.98;1.65;;;;;;;9.08;100.00;101040.66;5059715;27;102084;-32
2022/12/24 05:58:53;;;;;;;7.18;1.48;;;;;;;9.07;100.00;101038.94;5060109;27;98991;-32
2022/12/24 06:01:20;;;;;;;3.85;1.33;;;;;;;9.05;100.00;101030.03;5058163;27;96688;-32
2022/12/24 06:03:45;;;;;;;7.25;1.27;;;;;;;9.03;100.00;101032.78;5058820;27;96926;-32
2022/12/24 06:06:14;;;;;;;14.85;1.63;;;;;;;9.03;100.00;101040.03;5059324;27;99642;-32
2022/12/24 06:08:41;;;;;;;7.85;0.95;;;;;;;8.98;100.00;101036.69;5058288;27;101130;-32
2022/12/24 06:11:09;;;;;;;4.63;1.58;;;;;;;8.96;100.00;101050.28;5058648;27;97138;-34
2022/12/24 06:13:35;;;;;;;13.73;1.45;;;;;;;8.95;100.00;101047.69;5060130;27;96794;-32
2022/12/24 06:16:03;;;;;;;8.77;1.20;;;;;;;8.92;100.00;101052.28;5058036;27;101407;-32
2022/12/24 06:18:33;;;;;;;15.85;1.38;;;;;;;8.87;100.00;101048.94;5059788;27;99411;-32
2022/12/24 06:20:59;;;;;;;12.63;1.15;;;;;;;8.86;100.00;101068.78;5058194;27;96621;-31
2022/12/24 06:23:25;;;;;;;3.20;1.13;;;;;;;8.87;100.00;101064.28;5059786;27;96763;-32
2022/12/24 06:25:51;;;;;;;4.07;1.02;;;;;;;8.82;100.00;101056.41;5057293;27;100772;-32
2022/12/24 06:28:17;;;;;;;4.00;1.20;;;;;;;8.79;100.00;101061.94;5059262;27;99316;-32
2022/12/24 06:30:47;;;;;;;6.78;0.88;;;;;;;8.75;100.00;101063.06;5058109;27;96522;-32
2022/12/24 06:33:13;;;;;;;11.05;0.88;;;;;;;8.73;100.00;101073.09;5057735;27;96801;-32
2022/12/24 06:35:38;;;;;;;4.47;0.68;;;;;;;8.72;100.00;101068.59;5059260;27;97400;-32
2022/12/24 06:38:03;;;;;;;8.95;1.13;;;;;;;8.66;100.00;101064.41;5059157;27;99277;-32
2022/12/24 06:40:29;;;;;;;4.15;0.73;;;;;;;8.65;100.00;101062.66;5059320;27;96632;-32
2022/12/24 06:42:54;;;;;;;5.55;1.27;;;;;;;8.60;100.00;101055.72;5059930;27;96854;-32
2022/12/24 06:45:19;;;;;;;7.40;1.20;;;;;;;8.59;100.00;101071.06;5059107;27;97756;-33
2022/12/24 06:47:45;;;;;;;10.98;1.08;;;;;;;8.58;100.00;101071.13;5058712;27;99353;-32
2022/12/24 06:50:10;;;;;;;6.45;1.13;;;;;;;8.58;100.00;101068.44;5058662;27;96472;-32
2022/12/24 06:52:36;;;;;;;2.92;1.40;;;;;;;8.59;100.00;101076.47;5059477;27;96750;-33
2022/12/24 06:55:02;;;;;;;6.53;1.20;;;;;;;8.58;100.00;101073.81;5057459;27;100906;-32
2022/12/24 06:57:28;;;;;;;15.10;1.35;;;;;;;8.58;100.00;101080.13;5059114;27;97023;-32
2022/12/24 06:59:53;;;;;;;11.95;1.15;;;;;;;8.59;100.00;101086.41;5059456;27;96625;-32
2022/12/24 07:02:18;;;;;;;6.25;1.35;;;;;;;8.57;100.00;101088.28;5059128;27;96867;-32
2022/12/24 07:04:44;;;;;;;7.20;1.58;;;;;;;8.57;100.00;101091.84;5058813;27;97980;-32
2022/12/24 07:07:09;;;;;;;12.25;1.58;;;;;;;8.61;100.00;101095.31;5058889;27;98628;-32
2022/12/24 07:09:34;;;;;;;9.73;1.58;;;;;;;8.61;100.00;101088.06;5057749;27;96505;-33
2022/12/24 07:12:00;;;;;;;13.75;1.35;;;;;;;8.64;100.00;101081.63;5059058;27;96958;-32
2022/12/24 07:14:25;;;;;;;4.68;1.27;;;;;;;8.66;100.00;101093.25;5057969;27;98865;-32
2022/12/24 07:16:51;;;;;;;10.10;1.67;;;;;;;8.65;100.00;101086.06;5058723;27;97792;-33
2022/12/24 07:19:17;;;;;;;7.70;1.35;;;;;;;8.67;100.00;101092.28;5059208;27;96521;-32
2022/12/24 07:21:42;;;;;;;7.97;1.75;;;;;;;8.67;100.00;101093.16;5058503;27;96831;-32
2022/12/24 07:24:07;;;;;;;10.63;1.13;;;;;;;8.67;100.00;101100.38;5058783;27;97667;-32
2022/12/24 07:26:33;;;;;;;15.20;2.00;;;;;;;8.68;100.00;101107.53;5058142;27;103428;-33
2022/12/24 07:28:58;;;;;;;19.65;1.50;;;;;;;8.71;100.00;101113.66;5058935;27;96495;-32
2022/12/24 07:31:24;;;;;;;10.90;1.65;;;;;;;8.77;100.00;101125.09;5059240;27;96821;-35
2022/12/24 07:33:49;;;;;;;5.35;1.23;;;;;;;8.75;100.00;101130.59;5058195;27;99442;-32
2022/12/24 07:36:18;;;;;;;4.13;1.10;;;;;;;8.79;100.00;101131.31;5058360;27;97725;-32
2022/12/24 07:38:44;;;;;;;5.38;1.23;;;;;;;8.81;100.00;101132.97;5056728;27;96577;-33
2022/12/24 07:41:09;;;;;;;12.43;1.63;;;;;;;8.86;100.00;101144.41;5058723;27;96843;-32
2022/12/24 07:43:35;;;;;;;12.55;2.25;;;;;;;8.89;100.00;101148.78;5057645;27;97929;-33
2022/12/24 07:46:01;;;;;;;14.25;2.15;;;;;;;8.90;100.00;101153.25;5056015;27;97227;-32
2022/12/24 07:48:28;;;;;;;3.50;1.40;;;;;;;8.92;100.00;101154.06;5058427;27;96534;-33
2022/12/24 07:50:54;;;;;;;10.93;1.70;;;;;;;8.95;100.00;101158.44;5057028;27;96786;-33
2022/12/24 07:53:21;;;;;;;4.75;1.10;;;;;;;8.95;100.00;101156.59;5056743;27;101081;-32
2022/12/24 07:55:47;;;;;;;7.13;1.65;;;;;;;8.99;100.00;101154.66;5058147;27;97798;-32
2022/12/24 07:58:12;;;;;;;14.02;1.35;;;;;;;9.00;100.00;101168.06;5058555;27;96573;-32
2022/12/24 08:00:37;;;;;;;5.43;1.60;;;;;;;8.99;100.00;101165.44;5058031;27;96906;-32
2022/12/24 08:03:03;;;;;;;14.35;1.73;;;;;;;8.99;100.00;101181.66;5057277;27;104116;-33
2022/12/24 08:05:33;;;;;;;6.65;1.73;;;;;;;8.98;100.00;101174.50;5057583;27;99244;-33
2022/12/24 08:07:58;;;;;;;15.27;2.25;;;;;;;8.97;100.00;101173.63;5056857;27;96620;-32
2022/12/24 08:10:24;;;;;;;3.45;1.08;;;;;;;8.95;100.00;101182.75;5058240;27;96825;-32
2022/12/24 08:12:49;;;;;;;14.50;2.10;;;;;;;8.95;100.00;101189.03;5057695;27;98030;-32
2022/12/24 08:15:14;;;;;;;8.85;1.50;;;;;;;8.94;100.00;101192.69;5057247;27;99294;-33
2022/12/24 08:17:40;;;;;;;3.75;1.13;;;;;;;8.93;100.00;101199.91;5057937;27;96467;-34
2022/12/24 08:20:05;;;;;;;9.50;1.75;;;;;;;8.90;100.00;101205.47;5058563;27;96924;-32
2022/12/24 08:22:31;;;;;;;6.70;1.42;;;;;;;8.91;100.00;101211.72;5056448;27;97437;-32
2022/12/24 08:24:56;;;;;;;6.95;1.67;;;;;;;8.92;100.00;101208.09;5057469;27;100892;-32
2022/12/24 08:27:21;;;;;;;6.78;1.73;;;;;;;8.91;100.00;101211.72;5057588;27;96470;-32
2022/12/24 08:29:47;;;;;;;7.05;1.67;;;;;;;8.93;100.00;101221.50;5057737;27;96810;-32
2022/12/24 08:32:12;;;;;;;7.35;1.63;;;;;;;8.91;100.00;101218.03;5057097;27;97906;-31
2022/12/24 08:34:37;;;;;;;9.25;0.95;;;;;;;8.91;100.00;101223.44;5057343;27;98632;-32
2022/12/24 08:37:03;;;;;;;7.72;1.23;;;;;;;8.91;100.00;101228.84;5057661;27;96481;-32
2022/12/24 08:39:29;;;;;;;7.88;0.90;;;;;;;8.95;100.00;101234.09;5057975;27;96764;-32
2022/12/24 08:41:54;;;;;;;7.57;1.02;;;;;;;8.92;100.00;101233.28;5057453;27;98058;-32
2022/12/24 08:44:20;;;;;;;11.05;1.55;;;;;;;8.98;100.00;101247.44;5057550;27;97780;-33
2022/12/24 08:46:45;;;;;;;10.18;1.15;;;;;;;9.00;100.00;101240.13;5057231;27;96558;-32
2022/12/24 08:49:10;;;;;;;14.25;1.95;;;;;;;8.99;100.00;101241.97;5057661;27;96848;-32
2022/12/24 08:51:36;;;;;;;12.05;1.20;;;;;;;9.01;100.00;101253.59;5056712;27;98088;-32
2022/12/24 08:54:01;;;;;;;7.15;1.48;;;;;;;9.01;100.00;101253.59;5056926;27;98849;-32
2022/12/24 08:56:26;;;;;;;5.13;1.23;;;;;;;9.05;100.00;101262.41;5060153;27;96439;-33
2022/12/24 08:58:51;;;;;;;9.60;1.08;;;;;;;9.06;100.00;101264.16;5061467;27;96729;-29
2022/12/24 09:01:19;;;;;;;7.40;1.63;;;;;;;9.10;100.00;101271.16;5060644;27;99284;-29
2022/12/24 09:03:44;;;;;;;12.57;1.50;;;;;;;9.11;100.00;101271.09;5059139;27;99232;-29
2022/12/24 09:06:10;;;;;;;5.28;1.10;;;;;;;9.11;100.00;101267.53;5061119;27;96473;-30
2022/12/24 09:08:36;;;;;;;4.95;0.77;;;;;;;9.13;100.00;101265.63;5060090;27;96794;-30
2022/12/24 09:11:13;;;;;;;9.48;1.40;;;;;;;9.15;100.00;101274.50;5059216;27;100824;-31
2022/12/24 09:13:40;;;;;;;3.65;1.00;;;;;;;9.18;100.00;101278.91;5060183;27;99122;-30
2022/12/24 09:16:06;;;;;;;7.97;1.17;;;;;;;9.19;100.00;101278.81;5059095;27;96859;-30
2022/12/24 09:18:32;;;;;;;6.53;1.73;;;;;;;9.19;100.00;101275.25;5059440;27;96867;-30
2022/12/24 09:20:59;;;;;;;3.38;0.88;;;;;;;9.19;100.00;101284.22;5060264;27;97943;-29
2022/12/24 09:23:25;;;;;;;7.43;1.52;;;;;;;9.19;100.00;101281.53;5058669;27;100737;-30
2022/12/24 09:25:50;;;;;;;5.97;1.13;;;;;;;9.21;100.00;101289.56;5059471;27;96767;-29
2022/12/24 09:28:15;;;;;;;2.97;0.98;;;;;;;9.23;100.00;101295.78;5060283;27;97520;-32
2022/12/24 09:30:41;;;;;;;3.40;1.08;;;;;;;9.25;100.00;101310.09;5060113;27;97302;-29
2022/12/24 09:33:06;;;;;;;14.80;1.30;;;;;;;9.22;100.00;101296.72;5060652;27;101612;-30
2022/12/24 09:35:31;;;;;;;9.55;1.05;;;;;;;9.25;100.00;101307.41;5060730;27;96833;-30
2022/12/24 09:38:02;;;;;;;5.22;1.13;;;;;;;9.30;100.00;101305.34;5060369;27;97005;-30
2022/12/24 09:40:39;;;;;;;12.85;1.45;;;;;;;9.38;100.00;101304.97;5059522;27;99323;-30
2022/12/24 09:43:15;;;;;;;6.18;1.00;;;;;;;9.41;100.00;101299.38;5058530;27;101298;-30
2022/12/24 09:45:48;;;;;;;16.17;1.50;;;;;;;9.42;100.00;101295.75;5060639;27;96613;-31
2022/12/24 09:48:23;;;;;;;17.08;1.63;;;;;;;9.47;100.00;101309.91;5060342;27;96648;-30
2022/12/24 09:50:53;;;;;;;7.60;1.35;;;;;;;9.50;100.00;101315.16;5058470;27;100944;-30
2022/12/24 09:53:28;;;;;;;7.07;1.10;;;;;;;9.53;100.00;101313.19;5058291;27;101102;-29
2022/12/24 09:55:58;;;;;;;2.33;0.70;;;;;;;9.52;100.00;101322.25;5056378;27;97021;-29
2022/12/24 09:58:32;;;;;;;13.10;1.40;;;;;;;9.56;100.00;101322.97;5056617;27;96837;-30
2022/12/24 10:00:58;;;;;;;13.23;1.15;;;;;;;9.55;100.00;101329.31;5057289;27;99086;-29
2022/12/24 10:03:23;;;;;;;11.85;1.60;;;;;;;9.54;100.00;101327.59;5057437;27;97305;-30
2022/12/24 10:06:04;;;;;;;10.23;1.88;;;;;;;9.56;100.00;101334.66;5056978;27;96778;-31
2022/12/24 10:08:56;;;;;;;16.63;1.85;;;;;;;9.57;100.00;101343.66;5055221;27;96731;-30
2022/12/24 10:11:42;;;;;;;2.17;1.15;;;;;;;9.57;100.00;101338.25;5056945;27;99052;-30
2022/12/24 10:14:16;;;;;;;5.55;1.30;;;;;;;9.55;100.00;101346.41;5056679;27;99206;-30
2022/12/24 10:16:57;;;;;;;7.65;1.25;;;;;;;9.52;100.00;101327.66;5056111;27;96576;-29
2022/12/24 10:19:42;;;;;;;4.75;1.23;;;;;;;9.56;100.00;101333.81;5055987;27;96714;-29
2022/12/24 10:22:22;;;;;;;12.45;1.27;;;;;;;9.57;100.00;101336.41;5055044;27;101057;-29
2022/12/24 10:25:06;;;;;;;6.78;1.63;;;;;;;9.57;100.00;101336.41;5055931;27;100460;-29
2022/12/24 10:27:38;;;;;;;7.47;1.17;;;;;;;9.56;100.00;101345.50;5055856;27;96678;-30
2022/12/24 10:30:13;;;;;;;8.88;1.67;;;;;;;9.57;100.00;101357.19;5055674;27;96676;-29
2022/12/24 10:32:39;;;;;;;10.73;1.38;;;;;;;9.59;100.00;101359.81;5056715;27;97627;-29
2022/12/24 10:35:14;;;;;;;13.88;1.92;;;;;;;9.60;100.00;101361.56;5054507;27;100603;-30
2022/12/24 10:37:41;;;;;;;7.32;1.20;;;;;;;9.61;100.00;101364.19;5057169;27;96787;-30
2022/12/24 10:40:15;;;;;;;10.00;2.00;;;;;;;9.64;100.00;101363.16;5055672;27;96818;-30
2022/12/24 10:42:41;;;;;;;6.30;1.10;;;;;;;9.65;100.00;101354.94;5054493;27;100994;-30
2022/12/24 10:45:14;;;;;;;7.28;1.05;;;;;;;9.67;100.00;101361.16;5054982;27;100768;-29
2022/12/24 10:47:42;;;;;;;10.93;1.92;;;;;;;9.61;100.00;101353.38;5055504;27;96524;-30
2022/12/24 10:50:41;;;;;;;15.10;1.13;;;;;;;9.64;100.00;101353.22;5057137;27;96769;-30
2022/12/24 10:53:21;;;;;;;7.10;1.02;;;;;;;9.70;100.00;101352.03;5053927;27;100772;-30
2022/12/24 10:55:47;;;;;;;4.85;1.38;;;;;;;9.71;100.00;101349.25;5054818;27;101091;-30
2022/12/24 10:58:18;;;;;;;7.68;1.45;;;;;;;9.78;100.00;101355.25;5053804;27;96729;-30
2022/12/24 11:00:51;;;;;;;12.05;1.38;;;;;;;9.93;100.00;101351.75;5054148;27;96806;-30
2022/12/24 11:03:17;;;;;;;8.18;1.27;;;;;;;9.98;100.00;101359.63;5052199;27;100935;-30
2022/12/24 11:05:42;;;;;;;11.23;1.48;;;;;;;9.91;100.00;101350.06;5052730;27;97381;-32
2022/12/24 11:08:19;;;;;;;7.90;0.88;;;;;;;9.93;100.00;101361.69;5053440;27;96971;-31
2022/12/24 11:11:13;;;;;;;12.85;1.75;;;;;;;9.98;100.00;101360.50;5053896;27;96716;-30
2022/12/24 11:13:43;;;;;;;1.92;0.63;;;;;;;10.07;99.83;101366.41;5053900;27;99336;-29
2022/12/24 11:16:29;;;;;;;9.85;2.00;;;;;;;10.10;99.48;101359.00;5055212;27;102277;-30
2022/12/24 11:19:01;;;;;;;6.38;0.88;;;;;;;10.18;99.24;101364.91;5056227;27;96554;-29
2022/12/24 11:21:30;;;;;;;10.10;1.13;;;;;;;10.22;98.86;101368.31;5054062;27;96952;-30
2022/12/24 11:23:59;;;;;;;12.38;0.88;;;;;;;10.31;98.73;101358.88;5054033;27;100908;-29
2022/12/24 11:26:29;;;;;;;8.65;1.45;;;;;;;10.37;98.17;101364.00;5054403;27;100871;-29
2022/12/24 11:29:07;;;;;;;14.02;2.13;;;;;;;10.38;98.13;101361.19;5054823;27;96724;-31
2022/12/24 11:31:35;;;;;;;17.45;2.10;;;;;;;10.39;97.59;101362.97;5055613;27;97029;-30
2022/12/24 11:34:24;;;;;;;8.15;1.38;;;;;;;10.35;97.47;101363.19;5054129;27;101274;-31
2022/12/24 11:36:50;;;;;;;7.10;1.08;;;;;;;10.34;97.49;101370.41;5054371;27;101071;-30